»·PEaware :: N664TL KSNA-KSFO

N664TL :: KSNA-KSFO

FLIGHT INFORMATION

Flight Status: Arrived
Operator: Privately registered:
United States
More flights under this callsign
Pilot: Anonymous 328 (328)
Aircraft: Unknown
(G500)
More flights by this aircraft type
Origin: KSNA John Wayne-Orange Co
United States
Destination: KSFO San Francisco Intl
United States
More flights between these airports :: More routes between these airports
Route: +MIKAA1 HHERO RIZIN STOKD SERFR SERFR3
File this flight plan on PilotEdge
Remarks: require 2L for departure
Altitude:
(Current/Filed)
43,000ft
Speed:
(Current/Filed)
0kts
Departed: 28-Sep-18 06:56 AM
Arrived: 28-Sep-18 08:12 AM
Distance/Time
Traveled:
323nm/1:16
Distance/Time
To Go:
Arrived

Flight Plot

Page will automatically refresh every two minutes.

Flight plan parsing failed; only flown route is shown


Map Options




Map Legend


Flown Route
Filed Route
Departure Airport
Arrival Airport
Navaid (VOR, NDB)
Fix

Horizontal Profiles

Position Reports

Time Latitude Longitude Heading Altitude Ground
Speed
28-Sep-18 06:30 33.676979 -117.869522 207 54ft 12kts
28-Sep-18 06:31 33.673443 -117.871758 207 57ft 15kts
28-Sep-18 06:32 33.670860 -117.873520 260 59ft 6kts
28-Sep-18 06:33 33.671379 -117.874123 23 59ft 0kts
28-Sep-18 06:34 33.671379 -117.874123 23 59ft 0kts
28-Sep-18 06:35 33.671379 -117.874123 23 59ft 0kts
28-Sep-18 06:36 33.671379 -117.874123 23 59ft 0kts
28-Sep-18 06:37 33.671379 -117.874123 23 59ft 0kts
28-Sep-18 06:38 33.671379 -117.874123 23 59ft 0kts
28-Sep-18 06:39 33.671379 -117.874123 23 59ft 0kts
28-Sep-18 06:40 33.671379 -117.874123 23 59ft 0kts
28-Sep-18 06:41 33.671379 -117.874123 23 59ft 0kts
28-Sep-18 06:42 33.671379 -117.874123 23 59ft 0kts
28-Sep-18 06:43 33.671379 -117.874123 23 59ft 0kts
28-Sep-18 06:44 33.671379 -117.874123 23 59ft 0kts
28-Sep-18 06:45 33.671379 -117.874123 23 59ft 0kts
28-Sep-18 06:46 33.671379 -117.874123 23 59ft 0kts
28-Sep-18 06:47 33.671379 -117.874123 23 59ft 0kts
28-Sep-18 06:48 33.671379 -117.874123 23 59ft 0kts
28-Sep-18 06:49 33.671379 -117.874123 23 59ft 0kts
28-Sep-18 06:50 33.671379 -117.874123 23 59ft 0kts
28-Sep-18 06:51 33.671379 -117.874123 23 59ft 0kts
28-Sep-18 06:52 33.671379 -117.874123 23 59ft 0kts
28-Sep-18 06:53 33.671200 -117.873291 159 59ft 3kts
28-Sep-18 06:54 33.669018 -117.874573 208 60ft 7kts
28-Sep-18 06:55 33.668396 -117.874718 152 60ft 0kts
28-Sep-18 06:56 33.668358 -117.874695 145 60ft 0kts
28-Sep-18 06:57 33.668251 -117.873550 32 61ft 0kts
28-Sep-18 06:58 33.697552 -117.855293 26 1998ft 191kts
28-Sep-18 06:59 33.742466 -117.812065 83 4644ft 224kts
28-Sep-18 07:00 33.739944 -117.742050 148 9059ft 226kts
28-Sep-18 07:01 33.681175 -117.720520 198 12378ft 239kts
28-Sep-18 07:02 33.628719 -117.766930 232 13021ft 242kts
28-Sep-18 07:03 33.591045 -117.826736 233 13019ft 193kts
28-Sep-18 07:04 33.560474 -117.875244 233 13013ft 187kts
28-Sep-18 07:05 33.529858 -117.923897 233 13051ft 215kts
28-Sep-18 07:06 33.490215 -117.986809 234 13031ft 243kts
28-Sep-18 07:07 33.448387 -118.067642 239 13043ft 329kts
28-Sep-18 07:08 33.415543 -118.170219 273 14083ft 340kts
28-Sep-18 07:09 33.436958 -118.283768 287 18077ft 361kts
28-Sep-18 07:10 33.481148 -118.395554 297 21709ft 382kts
28-Sep-18 07:11 33.531433 -118.511047 297 24839ft 402kts
28-Sep-18 07:12 33.594215 -118.624336 314 27562ft 419kts
28-Sep-18 07:13 33.679996 -118.723434 317 29919ft 436kts
28-Sep-18 07:14 33.770844 -118.823067 317 31996ft 451kts
28-Sep-18 07:15 33.864861 -118.926277 317 33833ft 464kts
28-Sep-18 07:16 33.961372 -119.031967 317 35433ft 473kts
28-Sep-18 07:17 34.057735 -119.138992 317 36937ft 470kts
28-Sep-18 07:18 34.153858 -119.245598 317 38450ft 471kts
28-Sep-18 07:19 34.250187 -119.352737 317 39970ft 469kts
28-Sep-18 07:20 34.345211 -119.458763 317 41475ft 462kts
28-Sep-18 07:21 34.437809 -119.563736 313 42924ft 451kts
28-Sep-18 07:22 34.527172 -119.675095 314 42998ft 472kts
28-Sep-18 07:23 34.621078 -119.791069 314 43000ft 493kts
28-Sep-18 07:24 34.705948 -119.924133 296 43006ft 508kts
28-Sep-18 07:25 34.763973 -120.081741 293 43002ft 517kts
28-Sep-18 07:26 34.821934 -120.241745 293 43007ft 516kts
28-Sep-18 07:27 34.879253 -120.401047 293 43011ft 515kts
28-Sep-18 07:28 34.936596 -120.561226 293 43010ft 516kts
28-Sep-18 07:29 34.993496 -120.720947 293 43007ft 516kts
28-Sep-18 07:30 35.065681 -120.870682 312 43010ft 515kts
28-Sep-18 07:31 35.167572 -120.993881 315 43010ft 516kts
28-Sep-18 07:32 35.271782 -121.113327 325 43009ft 515kts
28-Sep-18 07:33 35.402813 -121.183182 342 43011ft 516kts
28-Sep-18 07:34 35.542042 -121.224960 347 40996ft 513kts
28-Sep-18 07:35 35.681068 -121.261742 347 38283ft 512kts
28-Sep-18 07:36 35.820774 -121.298729 347 35553ft 513kts
28-Sep-18 07:37 35.961163 -121.336037 347 32812ft 517kts
28-Sep-18 07:38 36.094803 -121.387444 332 30134ft 493kts
28-Sep-18 07:39 36.209217 -121.474609 327 27570ft 475kts
28-Sep-18 07:40 36.316254 -121.558296 327 25859ft 426kts
28-Sep-18 07:41 36.412453 -121.633865 327 24414ft 399kts
28-Sep-18 07:42 36.505207 -121.706947 327 22966ft 391kts
28-Sep-18 07:43 36.595760 -121.778557 327 20895ft 379kts
28-Sep-18 07:44 36.683414 -121.848038 327 18910ft 368kts
28-Sep-18 07:45 36.773472 -121.903053 347 17012ft 357kts
28-Sep-18 07:46 36.869003 -121.929756 347 15137ft 347kts
28-Sep-18 07:47 36.961758 -121.957207 343 13318ft 338kts
28-Sep-18 07:48 37.049408 -121.991089 342 11560ft 319kts
28-Sep-18 07:49 37.130016 -122.022545 342 10471ft 290kts
28-Sep-18 07:50 37.206131 -122.052330 342 9175ft 281kts
28-Sep-18 07:51 37.279720 -122.081200 342 7929ft 273kts
28-Sep-18 07:52 37.351852 -122.109627 342 6469ft 268kts
28-Sep-18 07:53 37.417473 -122.133430 345 5555ft 214kts
28-Sep-18 07:54 37.470127 -122.151161 345 4371ft 191kts
28-Sep-18 07:55 37.521500 -122.168098 345 3049ft 192kts
28-Sep-18 07:56 37.553009 -122.213364 299 2546ft 175kts
28-Sep-18 07:57 37.576000 -122.267075 297 1627ft 165kts
28-Sep-18 07:58 37.593723 -122.309540 297 902ft 127kts
28-Sep-18 07:59 37.609829 -122.348907 295 1386ft 165kts
28-Sep-18 08:00 37.629963 -122.405067 293 3006ft 200kts
28-Sep-18 08:01 37.653088 -122.475609 275 3334ft 221kts
28-Sep-18 08:02 37.610210 -122.497910 130 4004ft 222kts
28-Sep-18 08:03 37.575375 -122.433372 123 4005ft 222kts
28-Sep-18 08:04 37.541355 -122.368568 123 4003ft 219kts
28-Sep-18 08:05 37.511005 -122.310745 123 4004ft 190kts
28-Sep-18 08:06 37.488022 -122.251564 103 4007ft 190kts
28-Sep-18 08:07 37.475735 -122.186592 103 4007ft 190kts
28-Sep-18 08:08 37.501976 -122.144379 353 3177ft 187kts
28-Sep-18 08:09 37.540730 -122.183815 300 2962ft 168kts
28-Sep-18 08:10 37.562630 -122.234978 297 2205ft 163kts
28-Sep-18 08:11 37.582542 -122.282738 297 1354ft 133kts
28-Sep-18 08:12 37.599037 -122.322266 297 682ft 127kts
28-Sep-18 08:13 37.615376 -122.361519 296 20ft 119kts
28-Sep-18 08:14 37.619244 -122.370491 334 17ft 1kts
28-Sep-18 08:15 37.621067 -122.371399 298 17ft 9kts
28-Sep-18 08:16 37.621414 -122.372208 297 17ft 1kts
28-Sep-18 08:17 37.623211 -122.376511 297 16ft 16kts
28-Sep-18 08:18 37.625286 -122.381248 326 15ft 6kts
28-Sep-18 08:19 37.626167 -122.380272 122 15ft 0kts
28-Sep-18 08:20 37.626167 -122.380272 122 15ft 0kts
28-Sep-18 08:21 37.626167 -122.380272 122 15ft 0kts
28-Sep-18 08:22 37.626167 -122.380272 122 15ft 0kts
28-Sep-18 08:23 37.626167 -122.380272 122 15ft 0kts
28-Sep-18 08:24 37.626167 -122.380272 122 15ft 0kts
28-Sep-18 08:25 37.626167 -122.380272 122 15ft 0kts
28-Sep-18 08:26 37.626167 -122.380272 122 15ft 0kts
28-Sep-18 08:27 37.626167 -122.380272 122 15ft 0kts
28-Sep-18 08:28 37.626167 -122.380272 122 15ft 0kts

Navigation Log

Ident Type
Flight plan parsing failed, navigation log unavailable